Anvik, Alaska
Current Conditions -  °F | °C
As of 8:16 PM on Sunday 19 Oct 2014 (Local Time) from PANV Reporting Station
Overcast Overcast  
Wind Chill: -8°   Ceiling: 7500
Heat Index: -2°   Visibility: 10mi
Dew Point: -7°   Wind: 12mph
Humidity: 69%   Direction: 30°NNE
Pressure: 29.29"   Gusts: NA
Location:  62.66°N, 160.21°W
Report Text: PANV 200416Z AUTO 03010KT 10SM OVC075 M02/M07 A2929 RMK AO1
Loading
Personal Weather Stations






























Interactive Weather Map
Tropical Storm Tracking
New forecast layout! Learn more

10-Day Weather Forecast

Advertisements
Track Severe Weather on mobile